Madison Park, Louisiana
Current Conditions -  °F | °C
As of 11:58 AM on Friday 24 Oct 2014 (Local Time) from KBAD Reporting Station
Clear Clear  
Wind Chill: 69°   Ceiling: Unl
Heat Index: 69°   Visibility: 10mi
Dew Point: 49°   Wind: 3mph
Humidity: 48%   Direction: NA
Pressure: 30.18"   Gusts: NA
Location:  32.457°N, 93.7096°W
Report Text: KBAD 241658Z AUTO VRB03KT 10SM CLR 21/10 A3018 RMK AO2 SLP222 T02080095
Loading
Personal Weather Stations






























Interactive Weather Map
Tropical Storm Tracking
New forecast layout! Learn more

10-Day Weather Forecast

Advertisements
Track Severe Weather on mobile